createdAt,value
2018-12-11T00:00:20.654Z,29.77
2018-12-11T00:02:52.825Z,17.50
2018-12-11T00:05:24.990Z,25.30
2018-12-11T00:07:57.234Z,24.07
2018-12-11T00:10:29.519Z,29.60
2018-12-11T00:13:01.680Z,22.37
2018-12-11T00:15:33.835Z,19.80
2018-12-11T00:18:06.047Z,22.17
2018-12-11T00:20:38.203Z,17.03
2018-12-11T00:23:10.359Z,26.27
2018-12-11T00:25:42.412Z,21.10
2018-12-11T00:28:14.603Z,30.47
2018-12-11T00:30:46.752Z,19.33
2018-12-11T00:33:19.545Z,22.27
2018-12-11T00:35:51.704Z,22.80
2018-12-11T00:38:23.854Z,23.77
2018-12-11T00:40:56.012Z,31.90
2018-12-11T00:43:28.448Z,26.50
2018-12-11T00:46:00.637Z,21.13
2018-12-11T00:48:32.966Z,28.07
2018-12-11T00:51:05.176Z,30.37
2018-12-11T00:53:37.363Z,31.57
2018-12-11T00:56:09.516Z,29.60
2018-12-11T00:58:41.694Z,28.57
2018-12-11T01:01:13.862Z,30.83
2018-12-11T01:03:46.025Z,26.60
2018-12-11T01:06:20.203Z,23.90
2018-12-11T01:08:52.957Z,31.47
2018-12-11T01:11:25.111Z,24.77
2018-12-11T01:13:57.283Z,31.30
2018-12-11T01:16:29.435Z,32.17
2018-12-11T01:19:01.592Z,22.20
2018-12-11T01:21:33.761Z,31.33
2018-12-11T01:24:05.952Z,20.33
2018-12-11T01:26:38.140Z,19.37
2018-12-11T01:29:10.309Z,37.93
2018-12-11T01:31:42.464Z,34.17
2018-12-11T01:34:14.649Z,33.57
2018-12-11T01:36:46.809Z,23.87
2018-12-11T01:39:18.964Z,31.47
2018-12-11T01:41:50.997Z,33.87
2018-12-11T01:44:23.144Z,23.00
2018-12-11T01:46:55.303Z,25.20
2018-12-11T01:49:27.460Z,34.67
2018-12-11T01:51:59.599Z,38.17
2018-12-11T01:54:31.661Z,42.23
2018-12-11T01:57:03.944Z,37.50
2018-12-11T01:59:36.121Z,27.30
2018-12-11T02:02:08.293Z,23.67
2018-12-11T02:04:40.479Z,26.93
2018-12-11T02:07:12.527Z,26.43
2018-12-11T02:09:44.689Z,29.40
2018-12-11T02:12:16.856Z,27.60
2018-12-11T02:14:49.069Z,37.93
2018-12-11T02:17:21.223Z,23.97
2018-12-11T02:19:53.275Z,24.93
2018-12-11T02:22:25.455Z,34.63
2018-12-11T02:24:57.636Z,23.13
2018-12-11T02:27:29.784Z,26.17
2018-12-11T02:30:01.945Z,45.47
2018-12-11T02:32:34.316Z,27.23
2018-12-11T02:35:06.489Z,35.37
2018-12-11T02:37:38.653Z,44.43
2018-12-11T02:40:10.821Z,28.60
2018-12-11T02:42:42.986Z,19.27
2018-12-11T02:45:15.064Z,28.93
2018-12-11T02:47:47.126Z,33.07
2018-12-11T02:50:19.338Z,27.20
2018-12-11T02:52:51.483Z,48.07
2018-12-11T02:55:23.659Z,28.10
2018-12-11T02:57:55.829Z,33.70
2018-12-11T03:00:27.897Z,28.73
2018-12-11T03:03:00.066Z,26.80
2018-12-11T03:05:32.270Z,39.50
2018-12-11T03:08:04.534Z,26.57
2018-12-11T03:10:36.807Z,31.17
2018-12-11T03:13:08.956Z,26.10
2018-12-11T03:15:41.018Z,38.77
2018-12-11T03:18:13.162Z,28.40
2018-12-11T03:20:45.322Z,25.57
2018-12-11T03:23:17.377Z,20.43
2018-12-11T03:25:49.540Z,22.77
2018-12-11T03:28:21.715Z,26.83
2018-12-11T03:30:53.875Z,15.60
2018-12-11T03:33:26.031Z,29.87
2018-12-11T03:35:58.204Z,24.00
2018-12-11T03:38:30.369Z,34.57
2018-12-11T03:41:02.550Z,30.23
2018-12-11T03:43:34.700Z,31.07
2018-12-11T03:46:06.861Z,30.20
2018-12-11T03:48:39.014Z,41.20
2018-12-11T03:51:11.180Z,21.40
2018-12-11T03:53:43.340Z,21.57
2018-12-11T03:56:15.389Z,28.67
2018-12-11T03:58:47.453Z,30.83
2018-12-11T04:01:19.629Z,30.93
2018-12-11T04:03:51.789Z,30.60
2018-12-11T04:06:23.955Z,31.63
2018-12-11T04:08:56.094Z,33.97
2018-12-11T04:11:28.267Z,30.97
2018-12-11T04:14:00.434Z,26.73
2018-12-11T04:16:39.121Z,25.27
2018-12-11T04:19:11.332Z,26.10
2018-12-11T04:21:43.510Z,24.33
2018-12-11T04:24:15.682Z,28.57
2018-12-11T04:26:47.743Z,27.00
2018-12-11T04:29:19.904Z,35.73
2018-12-11T04:31:51.980Z,22.93
2018-12-11T04:34:24.165Z,34.47
2018-12-11T04:36:56.340Z,31.67
2018-12-11T04:39:33.957Z,31.40
2018-12-11T04:42:02.709Z,23.87
2018-12-11T04:44:35.117Z,25.07
2018-12-11T04:47:07.300Z,23.37
2018-12-11T04:49:39.619Z,29.03
2018-12-11T04:52:13.712Z,23.20
2018-12-11T04:54:45.896Z,28.20
2018-12-11T04:57:18.377Z,22.67
2018-12-11T04:59:50.552Z,27.57
2018-12-11T05:02:22.701Z,29.93
2018-12-11T05:04:55.407Z,25.30
2018-12-11T05:07:27.568Z,27.63
2018-12-11T05:09:59.523Z,33.73
2018-12-11T05:12:31.719Z,24.53
2018-12-11T05:15:04.185Z,19.97
2018-12-11T05:17:36.576Z,22.73
2018-12-11T05:20:08.770Z,30.43
2018-12-11T05:22:40.936Z,24.60
2018-12-11T05:25:13.125Z,20.10
2018-12-11T05:27:45.230Z,25.00
2018-12-11T05:30:17.378Z,17.87
2018-12-11T05:32:49.549Z,16.30
2018-12-11T05:35:21.743Z,25.30
2018-12-11T05:37:53.900Z,36.37
2018-12-11T05:40:26.093Z,27.83
2018-12-11T05:42:58.180Z,29.90
2018-12-11T05:45:30.337Z,19.87
2018-12-11T05:48:02.522Z,21.67
2018-12-11T05:50:34.687Z,18.87
2018-12-11T05:53:06.863Z,18.57
2018-12-11T05:55:39.031Z,24.27
2018-12-11T05:58:11.207Z,20.60
2018-12-11T06:00:43.359Z,28.03
2018-12-11T06:03:15.526Z,16.50
2018-12-11T06:05:47.689Z,18.97
2018-12-11T06:08:19.862Z,29.30
2018-12-11T06:10:52.017Z,18.83
2018-12-11T06:13:24.175Z,18.93
2018-12-11T06:15:56.245Z,20.70
2018-12-11T06:18:28.432Z,14.73
2018-12-11T06:21:00.592Z,28.07
2018-12-11T06:23:32.796Z,24.93
2018-12-11T06:26:04.960Z,17.70
2018-12-11T06:28:37.158Z,26.50
2018-12-11T06:31:09.371Z,16.37
2018-12-11T06:33:41.455Z,17.87
2018-12-11T06:36:13.611Z,13.70
2018-12-11T06:38:45.775Z,17.07
2018-12-11T06:41:17.924Z,26.27
2018-12-11T06:43:49.924Z,15.97
2018-12-11T06:46:21.975Z,27.87
2018-12-11T06:48:54.061Z,16.47
2018-12-11T06:51:26.205Z,17.90
2018-12-11T06:53:58.379Z,20.87
2018-12-11T06:56:30.548Z,12.20
2018-12-11T06:59:02.618Z,13.17
2018-12-11T07:01:34.772Z,13.83
2018-12-11T07:04:06.934Z,16.70
2018-12-11T07:06:39.087Z,28.23
2018-12-11T07:09:11.264Z,22.20
2018-12-11T07:11:43.414Z,13.10
2018-12-11T07:14:15.603Z,20.57
2018-12-11T07:16:47.656Z,17.93
2018-12-11T07:19:19.835Z,21.40
2018-12-11T07:21:51.997Z,18.33
2018-12-11T07:24:24.177Z,15.80
2018-12-11T07:26:56.318Z,23.23
2018-12-11T07:29:28.505Z,16.07
2018-12-11T07:32:00.592Z,21.10
2018-12-11T07:34:32.777Z,14.87
2018-12-11T07:37:04.939Z,13.37
2018-12-11T07:39:37.122Z,18.20
2018-12-11T07:42:09.285Z,10.83
2018-12-11T07:44:41.436Z,10.33
2018-12-11T07:47:13.593Z,10.57
2018-12-11T07:49:45.573Z,10.47
2018-12-11T07:52:17.738Z,13.87
2018-12-11T07:54:49.907Z,9.30
2018-12-11T07:57:21.856Z,12.37
2018-12-11T07:59:54.016Z,14.57
2018-12-11T08:02:26.172Z,8.00
2018-12-11T08:04:58.361Z,12.17
2018-12-11T08:07:30.615Z,14.13
2018-12-11T08:10:02.899Z,8.87
2018-12-11T08:12:35.075Z,15.67
2018-12-11T08:15:07.340Z,17.03
2018-12-11T08:17:39.532Z,14.43
2018-12-11T08:20:11.710Z,9.50
2018-12-11T08:22:43.876Z,10.27
2018-12-11T08:25:16.051Z,12.13
2018-12-11T08:27:48.240Z,19.70
2018-12-11T08:30:20.424Z,15.77
2018-12-11T08:32:52.625Z,14.60
2018-12-11T08:35:24.704Z,7.60
2018-12-11T08:37:56.909Z,15.23
2018-12-11T08:40:29.079Z,10.33
2018-12-11T08:43:01.293Z,7.07
2018-12-11T08:45:33.459Z,12.67
2018-12-11T08:48:05.644Z,10.73
2018-12-11T08:50:37.825Z,14.37
2018-12-11T08:53:10.100Z,9.80
2018-12-11T08:55:42.277Z,11.40
2018-12-11T08:58:14.448Z,14.43
2018-12-11T09:00:46.622Z,17.20
2018-12-11T09:03:18.806Z,13.73
2018-12-11T09:05:50.992Z,8.83
2018-12-11T09:08:23.180Z,16.97
2018-12-11T09:10:55.220Z,12.80
2018-12-11T09:13:27.292Z,15.00
2018-12-11T09:15:59.672Z,9.40
2018-12-11T09:18:31.824Z,10.97
2018-12-11T09:21:04.004Z,9.43
2018-12-11T09:23:36.092Z,6.60
2018-12-11T09:26:08.272Z,11.50
2018-12-11T09:28:40.451Z,9.30
2018-12-11T09:31:12.676Z,8.20
2018-12-11T09:33:44.645Z,11.03
2018-12-11T09:36:16.818Z,10.27
2018-12-11T09:38:49.006Z,9.23
2018-12-11T09:41:21.196Z,12.53
2018-12-11T09:43:53.388Z,11.40
2018-12-11T09:46:25.468Z,9.77
2018-12-11T09:48:57.628Z,10.73
2018-12-11T09:51:29.797Z,15.83
2018-12-11T09:54:01.970Z,23.07
2018-12-11T09:56:34.141Z,22.10
2018-12-11T09:59:06.318Z,12.67
2018-12-11T10:01:38.384Z,13.87
2018-12-11T10:04:10.560Z,12.07
2018-12-11T10:06:42.740Z,14.20
2018-12-11T10:09:14.801Z,10.80
2018-12-11T10:11:50.880Z,21.37
2018-12-11T10:14:23.105Z,6.90
2018-12-11T10:16:55.168Z,12.50
2018-12-11T10:19:27.328Z,7.83
2018-12-11T10:21:59.497Z,8.87
2018-12-11T10:24:31.688Z,19.67
2018-12-11T10:27:03.855Z,11.97
2018-12-11T10:29:36.036Z,17.43
2018-12-11T10:32:08.187Z,11.40
2018-12-11T10:34:40.273Z,14.17
2018-12-11T10:37:12.433Z,11.03
2018-12-11T10:39:44.609Z,6.43
2018-12-11T10:42:16.756Z,13.07
2018-12-11T10:44:48.935Z,19.13
2018-12-11T10:47:22.055Z,15.83
2018-12-11T10:49:54.500Z,13.73
2018-12-11T10:52:26.667Z,9.13
2018-12-11T10:54:58.829Z,14.07
2018-12-11T10:57:30.994Z,16.53
2018-12-11T11:00:04.302Z,11.80
2018-12-11T11:02:41.119Z,16.63
2018-12-11T11:05:13.272Z,11.57
2018-12-11T11:07:45.757Z,23.90
2018-12-11T11:10:17.834Z,8.50
2018-12-11T11:12:50.140Z,15.07
2018-12-11T11:15:22.300Z,14.70
2018-12-11T11:17:54.465Z,11.87
2018-12-11T11:20:26.649Z,10.10
2018-12-11T11:22:58.788Z,13.70
2018-12-11T11:25:30.977Z,16.70
2018-12-11T11:28:03.120Z,18.30
2018-12-11T11:30:35.356Z,16.23
2018-12-11T11:33:07.512Z,24.17
2018-12-11T11:35:39.665Z,12.83
2018-12-11T11:38:11.803Z,7.80
2018-12-11T11:40:43.969Z,12.47
2018-12-11T11:43:16.103Z,18.33
2018-12-11T11:45:48.248Z,15.57
2018-12-11T11:48:20.415Z,13.07
2018-12-11T11:50:52.580Z,7.07
2018-12-11T11:53:25.016Z,11.30
2018-12-11T11:55:57.195Z,13.50
2018-12-11T11:58:29.340Z,16.07
2018-12-11T12:01:01.759Z,19.27
2018-12-11T12:03:33.912Z,16.63
2018-12-11T12:06:06.091Z,12.90
2018-12-11T12:08:38.258Z,10.33
2018-12-11T12:11:10.416Z,10.10
2018-12-11T12:13:42.374Z,13.13
2018-12-11T12:16:14.518Z,13.80
2018-12-11T12:18:46.575Z,11.10
2018-12-11T12:21:18.754Z,28.70
2018-12-11T12:23:50.945Z,8.23
2018-12-11T12:26:23.099Z,7.73
2018-12-11T12:28:55.253Z,12.20
2018-12-11T12:31:27.846Z,17.27
2018-12-11T12:34:00.212Z,8.20
2018-12-11T12:36:32.389Z,14.83
2018-12-11T12:39:06.820Z,11.10
2018-12-11T12:41:38.955Z,10.73
2018-12-11T12:44:11.107Z,9.77
2018-12-11T12:46:43.265Z,13.13
2018-12-11T12:49:15.443Z,8.53
2018-12-11T12:51:47.612Z,22.77
2018-12-11T12:54:19.767Z,11.33
2018-12-11T12:56:51.924Z,9.93
2018-12-11T12:59:24.077Z,12.97
2018-12-11T13:01:56.172Z,19.03
2018-12-11T13:04:28.336Z,10.57
2018-12-11T13:07:00.538Z,12.33
2018-12-11T13:09:32.596Z,16.33
2018-12-11T13:12:04.964Z,9.97
2018-12-11T13:14:37.167Z,11.87
2018-12-11T13:17:09.341Z,11.53
2018-12-11T13:19:41.488Z,17.17
2018-12-11T13:22:13.687Z,13.93
2018-12-11T13:24:45.840Z,19.10
2018-12-11T13:27:18.035Z,6.30
2018-12-11T13:29:50.192Z,13.00
2018-12-11T13:32:22.352Z,16.63
2018-12-11T13:34:54.531Z,12.73
2018-12-11T13:37:26.825Z,17.20
2018-12-11T13:39:58.965Z,22.77
2018-12-11T13:42:31.125Z,11.43
2018-12-11T13:45:03.770Z,12.77
2018-12-11T13:47:35.907Z,12.70
2018-12-11T13:50:08.122Z,14.13
2018-12-11T13:52:40.280Z,15.60
2018-12-11T13:55:12.428Z,17.63
2018-12-11T13:57:44.597Z,11.63
2018-12-11T14:00:16.753Z,8.10
2018-12-11T14:02:48.940Z,9.03
2018-12-11T14:05:21.107Z,11.23
2018-12-11T14:07:53.284Z,13.87
2018-12-11T14:10:25.442Z,14.23
2018-12-11T14:12:57.499Z,15.57
2018-12-11T14:15:29.456Z,15.23
2018-12-11T14:18:01.645Z,14.23
2018-12-11T14:20:33.816Z,11.97
2018-12-11T14:23:06.000Z,18.43
2018-12-11T14:25:38.210Z,21.80
2018-12-11T14:28:10.392Z,37.20
2018-12-11T14:30:42.547Z,17.60
2018-12-11T14:33:14.703Z,22.50
2018-12-11T14:35:46.905Z,9.27
2018-12-11T14:38:18.964Z,12.57
2018-12-11T14:40:51.153Z,15.20
2018-12-11T14:43:23.327Z,11.40
2018-12-11T14:45:55.613Z,15.00
2018-12-11T14:48:27.778Z,21.40
2018-12-11T14:50:59.947Z,10.47
2018-12-11T14:53:32.100Z,8.27
2018-12-11T14:56:04.265Z,10.80
2018-12-11T14:58:36.447Z,11.70
2018-12-11T15:01:08.655Z,10.53
2018-12-11T15:03:40.839Z,10.40
2018-12-11T15:06:12.990Z,8.30
2018-12-11T15:08:45.053Z,6.77
2018-12-11T15:11:17.117Z,5.93
2018-12-11T15:13:49.305Z,7.83
2018-12-11T15:16:21.879Z,7.23
2018-12-11T15:18:54.111Z,6.37
2018-12-11T15:21:26.236Z,11.17
2018-12-11T15:23:58.482Z,4.17
2018-12-11T15:26:31.065Z,8.17
2018-12-11T15:29:03.332Z,12.00
2018-12-11T15:31:35.413Z,6.27
2018-12-11T15:34:07.568Z,6.23
2018-12-11T15:36:39.619Z,5.90
2018-12-11T15:39:11.802Z,9.47
2018-12-11T15:41:43.980Z,10.97
2018-12-11T15:44:16.153Z,9.90
2018-12-11T15:46:48.419Z,3.80
2018-12-11T15:49:20.594Z,12.33
2018-12-11T15:51:52.882Z,9.53
2018-12-11T15:54:25.178Z,9.50
2018-12-11T15:56:57.659Z,4.80
2018-12-11T15:59:29.980Z,12.27
2018-12-11T16:02:02.255Z,24.90
2018-12-11T16:04:34.445Z,13.20
2018-12-11T16:07:06.636Z,6.87
2018-12-11T16:09:38.857Z,7.40
2018-12-11T16:12:11.074Z,9.33
2018-12-11T16:14:43.242Z,13.90
2018-12-11T16:17:15.443Z,15.33
2018-12-11T16:19:47.596Z,8.17
2018-12-11T16:22:19.883Z,5.47
2018-12-11T16:24:52.536Z,9.40
2018-12-11T16:27:25.234Z,10.70
2018-12-11T16:29:57.436Z,11.70
2018-12-11T16:32:29.597Z,9.00
2018-12-11T16:35:01.865Z,9.93
2018-12-11T16:37:34.253Z,6.83
2018-12-11T16:40:06.489Z,6.67
2018-12-11T16:42:38.652Z,6.37
2018-12-11T16:45:10.791Z,9.80
2018-12-11T16:47:42.949Z,17.97
2018-12-11T16:50:15.135Z,9.70
2018-12-11T16:52:47.334Z,9.43
2018-12-11T16:55:19.505Z,7.83
2018-12-11T16:57:51.736Z,4.93
2018-12-11T17:00:23.924Z,5.43
2018-12-11T17:02:56.004Z,8.70
2018-12-11T17:05:28.188Z,11.03
2018-12-11T17:08:00.391Z,9.77
2018-12-11T17:10:32.614Z,10.03
2018-12-11T17:13:04.804Z,10.53
2018-12-11T17:15:38.257Z,10.70
2018-12-11T17:18:10.771Z,7.43
2018-12-11T17:20:43.436Z,8.60
2018-12-11T17:23:15.793Z,9.50
2018-12-11T17:25:47.967Z,11.80
2018-12-11T17:28:20.128Z,12.07
2018-12-11T17:30:52.317Z,12.13
2018-12-11T17:33:24.480Z,10.37
2018-12-11T17:35:56.427Z,11.57
2018-12-11T17:38:28.491Z,13.63
2018-12-11T17:41:00.661Z,27.67
2018-12-11T17:43:32.810Z,17.40
2018-12-11T17:46:04.964Z,15.57
2018-12-11T17:48:41.536Z,15.97
2018-12-11T17:51:11.666Z,21.30
2018-12-11T17:53:44.052Z,17.80
2018-12-11T17:56:16.233Z,21.03
2018-12-11T17:58:48.389Z,14.07
2018-12-11T18:01:21.978Z,15.60
2018-12-11T18:03:54.147Z,15.83
2018-12-11T18:06:26.372Z,19.73
2018-12-11T18:08:58.513Z,16.77
2018-12-11T18:11:30.726Z,18.23
2018-12-11T18:14:03.065Z,12.97
2018-12-11T18:16:35.220Z,14.63
2018-12-11T18:19:07.416Z,12.50
2018-12-11T18:21:39.677Z,11.23
2018-12-11T18:24:11.847Z,9.83
2018-12-11T18:26:44.025Z,12.30
2018-12-11T18:29:16.184Z,6.23
2018-12-11T18:31:48.850Z,6.43
2018-12-11T18:34:21.013Z,12.50
2018-12-11T18:36:53.432Z,11.07
2018-12-11T18:39:26.245Z,9.40
2018-12-11T18:41:58.689Z,11.70
2018-12-11T18:44:31.145Z,10.70
2018-12-11T18:47:03.375Z,5.47
2018-12-11T18:49:35.350Z,9.60
2018-12-11T18:52:07.563Z,10.03
2018-12-11T18:54:39.780Z,9.87
2018-12-11T18:57:11.912Z,10.17
2018-12-11T18:59:43.997Z,12.83
2018-12-11T19:02:16.249Z,7.13
2018-12-11T19:04:48.419Z,9.20
2018-12-11T19:07:21.200Z,7.93
2018-12-11T19:09:53.410Z,15.83
2018-12-11T19:12:25.654Z,13.20
2018-12-11T19:14:57.968Z,12.43
2018-12-11T19:17:30.193Z,12.93
2018-12-11T19:20:03.093Z,14.40
2018-12-11T19:22:35.073Z,11.10
2018-12-11T19:25:10.316Z,11.67
2018-12-11T19:27:42.489Z,13.73
2018-12-11T19:30:14.648Z,18.60
2018-12-11T19:32:46.884Z,13.87
2018-12-11T19:35:19.232Z,14.27
2018-12-11T19:37:51.379Z,18.40
2018-12-11T19:40:23.612Z,36.10
2018-12-11T19:42:56.138Z,32.90
2018-12-11T19:45:28.436Z,31.50
2018-12-11T19:48:00.579Z,40.40
2018-12-11T19:50:32.696Z,41.83
2018-12-11T19:53:04.800Z,37.00
2018-12-11T19:55:36.958Z,29.87
2018-12-11T19:58:09.043Z,32.57
2018-12-11T20:00:41.216Z,25.70
2018-12-11T20:03:13.456Z,27.93
2018-12-11T20:05:45.703Z,25.30
2018-12-11T20:08:17.879Z,17.33
2018-12-11T20:10:53.203Z,16.17
2018-12-11T20:13:25.455Z,16.43
2018-12-11T20:15:57.620Z,12.60
2018-12-11T20:18:29.889Z,12.97
2018-12-11T20:21:02.093Z,10.67
2018-12-11T20:23:34.227Z,12.73
2018-12-11T20:26:06.517Z,5.33
2018-12-11T20:28:38.796Z,8.00
2018-12-11T20:31:10.965Z,5.63
2018-12-11T20:33:43.101Z,5.50
2018-12-11T20:36:15.327Z,12.97
2018-12-11T20:38:47.417Z,12.80
2018-12-11T20:41:19.573Z,13.87
2018-12-11T20:43:51.726Z,14.30
2018-12-11T20:46:23.793Z,8.53
2018-12-11T20:48:55.937Z,9.77
2018-12-11T20:51:28.105Z,9.57
2018-12-11T20:54:00.229Z,9.60
2018-12-11T20:56:32.787Z,7.63
2018-12-11T20:59:04.983Z,9.60
2018-12-11T21:01:37.016Z,8.87
2018-12-11T21:04:09.189Z,6.70
2018-12-11T21:06:41.394Z,8.87
2018-12-11T21:09:15.748Z,12.67
2018-12-11T21:11:47.881Z,9.80
2018-12-11T21:14:20.165Z,17.23
2018-12-11T21:16:52.337Z,19.07
2018-12-11T21:19:24.414Z,12.67
2018-12-11T21:21:56.646Z,17.40
2018-12-11T21:24:28.833Z,20.33
2018-12-11T21:27:01.138Z,22.57
2018-12-11T21:29:33.488Z,18.00
2018-12-11T21:32:05.759Z,14.23
2018-12-11T21:34:37.958Z,14.67
2018-12-11T21:37:10.209Z,13.87
2018-12-11T21:39:42.384Z,13.57
2018-12-11T21:42:14.707Z,13.27
2018-12-11T21:44:46.764Z,14.20
2018-12-11T21:47:18.872Z,18.20
2018-12-11T21:49:51.041Z,17.50
2018-12-11T21:52:23.244Z,13.13
2018-12-11T21:54:55.395Z,10.47
2018-12-11T21:57:27.604Z,14.27
2018-12-11T21:59:59.769Z,15.57
2018-12-11T22:02:32.053Z,14.90
2018-12-11T22:05:04.649Z,15.63
2018-12-11T22:07:36.828Z,18.83
2018-12-11T22:10:08.997Z,15.03
2018-12-11T22:12:41.288Z,19.30
2018-12-11T22:15:13.453Z,18.90
2018-12-11T22:17:45.639Z,17.27
2018-12-11T22:20:17.811Z,15.63
2018-12-11T22:22:50.003Z,18.53
2018-12-11T22:25:22.162Z,22.90
2018-12-11T22:27:54.341Z,18.43
2018-12-11T22:30:26.494Z,31.90
2018-12-11T22:32:58.772Z,18.23
2018-12-11T22:35:30.961Z,24.67
2018-12-11T22:38:03.172Z,15.17
2018-12-11T22:40:35.449Z,20.13
2018-12-11T22:43:07.636Z,20.20
2018-12-11T22:45:39.810Z,23.47
2018-12-11T22:48:12.017Z,22.97
2018-12-11T22:50:44.181Z,18.47
2018-12-11T22:53:16.261Z,23.43
2018-12-11T22:55:48.335Z,27.70
2018-12-11T22:58:20.532Z,26.53
2018-12-11T23:00:52.930Z,18.23
2018-12-11T23:03:25.107Z,29.33
2018-12-11T23:05:57.288Z,19.23
2018-12-11T23:08:29.475Z,20.50
2018-12-11T23:11:01.668Z,17.50
2018-12-11T23:13:34.653Z,21.83
2018-12-11T23:16:06.830Z,21.10
2018-12-11T23:18:39.003Z,17.97
2018-12-11T23:21:11.152Z,18.53
2018-12-11T23:23:43.528Z,13.80
2018-12-11T23:26:15.673Z,17.70
2018-12-11T23:28:47.826Z,14.33
2018-12-11T23:31:19.977Z,17.40
2018-12-11T23:33:52.139Z,16.23
2018-12-11T23:36:24.330Z,19.37
2018-12-11T23:38:56.493Z,15.03
2018-12-11T23:41:28.650Z,12.50
2018-12-11T23:44:00.794Z,18.17
2018-12-11T23:46:32.938Z,16.20
2018-12-11T23:49:05.088Z,19.13
2018-12-11T23:51:37.237Z,21.40
2018-12-11T23:54:09.405Z,16.50
2018-12-11T23:56:41.585Z,16.33
2018-12-11T23:59:13.731Z,16.00
